createdAt,value
2022-11-13T00:00:57.164Z,40.30
2022-11-13T00:01:57.214Z,57.40
2022-11-13T00:02:58.250Z,132.60
2022-11-13T00:03:57.156Z,55.40
2022-11-13T00:04:57.120Z,59.60
2022-11-13T00:05:57.115Z,40.70
2022-11-13T00:06:59.419Z,45.00
2022-11-13T00:07:58.115Z,28.00
2022-11-13T00:08:57.104Z,35.70
2022-11-13T00:09:57.082Z,43.70
2022-11-13T00:10:57.074Z,74.10
2022-11-13T00:11:57.063Z,147.30
2022-11-13T00:12:57.057Z,144.40
2022-11-13T00:13:57.057Z,76.30
2022-11-13T00:14:57.035Z,94.90
2022-11-13T00:15:57.020Z,74.20
2022-11-13T00:16:57.044Z,47.90
2022-11-13T00:17:57.068Z,39.50
2022-11-13T00:18:57.004Z,49.20
2022-11-13T00:19:57.086Z,31.80
2022-11-13T00:20:56.964Z,23.00
2022-11-13T00:21:56.980Z,24.00
2022-11-13T00:22:56.947Z,24.90
2022-11-13T00:23:57.048Z,21.70
2022-11-13T00:24:56.932Z,24.10
2022-11-13T00:25:56.933Z,21.80
2022-11-13T00:26:56.956Z,29.50
2022-11-13T00:27:56.908Z,25.20
2022-11-13T00:28:56.897Z,26.00
2022-11-13T00:29:56.887Z,28.10
2022-11-13T00:30:56.865Z,29.90
2022-11-13T00:31:56.901Z,30.60
2022-11-13T00:32:56.850Z,32.20
2022-11-13T00:34:58.859Z,56.00
2022-11-13T00:35:56.885Z,42.40
2022-11-13T00:36:56.804Z,55.40
2022-11-13T00:37:56.800Z,48.20
2022-11-13T00:38:56.791Z,53.10
2022-11-13T00:39:59.638Z,84.60
2022-11-13T00:40:57.787Z,42.30
2022-11-13T00:41:56.763Z,42.30
2022-11-13T00:42:56.754Z,48.60
2022-11-13T00:43:56.740Z,52.20
2022-11-13T00:44:56.725Z,62.30
2022-11-13T00:45:56.737Z,63.80
2022-11-13T00:46:56.710Z,53.00
2022-11-13T00:47:56.703Z,67.20
2022-11-13T00:48:56.691Z,47.50
2022-11-13T00:49:56.754Z,63.00
2022-11-13T00:50:56.684Z,68.20
2022-11-13T00:51:56.680Z,148.30
2022-11-13T00:52:56.658Z,83.80
2022-11-13T00:53:56.676Z,76.80
2022-11-13T00:54:56.626Z,57.50
2022-11-13T00:55:56.743Z,56.60
2022-11-13T00:56:56.633Z,68.10
2022-11-13T00:57:56.609Z,97.30
2022-11-13T00:58:56.611Z,124.50
2022-11-13T00:59:56.607Z,235.20
2022-11-13T01:00:56.602Z,262.30
2022-11-13T01:01:56.618Z,202.40
2022-11-13T01:02:56.552Z,194.00
2022-11-13T01:03:56.602Z,196.20
2022-11-13T01:04:56.533Z,441.30
2022-11-13T01:05:56.623Z,150.40
2022-11-13T01:06:56.635Z,91.20
2022-11-13T01:07:56.514Z,142.50
2022-11-13T01:08:56.500Z,183.70
2022-11-13T01:09:56.489Z,140.30
2022-11-13T01:10:56.470Z,194.10
2022-11-13T01:11:56.513Z,182.40
2022-11-13T01:12:56.480Z,91.20
2022-11-13T01:13:56.454Z,68.50
2022-11-13T01:14:56.439Z,112.20
2022-11-13T01:15:56.426Z,177.20
2022-11-13T01:16:56.470Z,151.90
2022-11-13T01:17:56.486Z,158.00
2022-11-13T01:18:56.514Z,133.90
2022-11-13T01:19:56.400Z,185.90
2022-11-13T01:20:56.380Z,119.50
2022-11-13T01:21:56.442Z,189.30
2022-11-13T01:22:56.386Z,171.30
2022-11-13T01:23:57.365Z,189.10
2022-11-13T01:24:56.342Z,139.70
2022-11-13T01:25:56.332Z,207.40
2022-11-13T01:26:56.379Z,119.60
2022-11-13T01:27:56.357Z,79.80
2022-11-13T01:28:56.302Z,177.60
2022-11-13T01:29:56.306Z,72.40
2022-11-13T01:30:56.288Z,136.70
2022-11-13T01:31:56.292Z,117.40
2022-11-13T01:32:56.265Z,61.40
2022-11-13T01:33:56.280Z,122.20
2022-11-13T01:34:56.249Z,89.90
2022-11-13T01:35:56.246Z,101.30
2022-11-13T01:36:56.252Z,121.30
2022-11-13T01:37:56.301Z,91.60
2022-11-13T01:38:56.232Z,95.20
2022-11-13T01:39:56.200Z,89.40
2022-11-13T01:40:56.203Z,63.30
2022-11-13T01:41:56.232Z,110.20
2022-11-13T01:42:56.170Z,103.70
2022-11-13T01:43:56.173Z,81.40
2022-11-13T01:44:56.152Z,47.10
2022-11-13T01:45:56.185Z,45.50
2022-11-13T01:46:56.133Z,53.40
2022-11-13T01:47:56.144Z,79.00
2022-11-13T01:48:56.121Z,98.60
2022-11-13T01:49:56.110Z,117.00
2022-11-13T01:50:56.088Z,86.10
2022-11-13T01:51:56.075Z,206.60
2022-11-13T01:52:56.084Z,73.60
2022-11-13T01:53:56.141Z,148.00
2022-11-13T01:54:56.078Z,86.10
2022-11-13T01:55:56.050Z,109.80
2022-11-13T01:56:56.039Z,98.10
2022-11-13T01:57:56.058Z,138.10
2022-11-13T01:58:56.020Z,272.70
2022-11-13T01:59:56.009Z,55.70
2022-11-13T02:00:56.015Z,52.90
2022-11-13T02:01:56.071Z,52.30
2022-11-13T02:02:55.999Z,76.10
2022-11-13T02:03:55.977Z,58.10
2022-11-13T02:04:55.968Z,68.40
2022-11-13T02:05:55.961Z,202.60
2022-11-13T02:06:56.003Z,205.90
2022-11-13T02:07:55.928Z,53.60
2022-11-13T02:08:55.950Z,201.30
2022-11-13T02:09:55.920Z,40.40
2022-11-13T02:10:55.908Z,56.50
2022-11-13T02:11:55.914Z,56.60
2022-11-13T02:12:55.906Z,31.10
2022-11-13T02:13:55.878Z,48.40
2022-11-13T02:14:55.860Z,51.80
2022-11-13T02:15:55.859Z,34.50
2022-11-13T02:16:55.837Z,33.30
2022-11-13T02:17:55.862Z,51.20
2022-11-13T02:18:55.821Z,43.50
2022-11-13T02:19:55.806Z,42.50
2022-11-13T02:20:55.800Z,24.10
2022-11-13T02:21:55.788Z,25.50
2022-11-13T02:22:55.787Z,23.30
2022-11-13T02:23:55.796Z,25.00
2022-11-13T02:24:55.761Z,34.20
2022-11-13T02:25:55.834Z,31.40
2022-11-13T02:26:55.752Z,33.90
2022-11-13T02:27:55.760Z,27.30
2022-11-13T02:28:55.785Z,26.00
2022-11-13T02:29:55.769Z,70.00
2022-11-13T02:30:55.733Z,73.20
2022-11-13T02:31:55.701Z,44.30
2022-11-13T02:32:55.703Z,100.50
2022-11-13T02:33:55.670Z,106.20
2022-11-13T02:34:55.674Z,68.00
2022-11-13T02:35:55.647Z,52.90
2022-11-13T02:36:55.636Z,78.00
2022-11-13T02:37:55.626Z,168.00
2022-11-13T02:38:55.704Z,74.20
2022-11-13T02:39:55.623Z,96.50
2022-11-13T02:40:55.681Z,106.50
2022-11-13T02:41:55.662Z,155.80
2022-11-13T02:42:55.585Z,30.70
2022-11-13T02:43:55.579Z,54.80
2022-11-13T02:44:55.615Z,201.30
2022-11-13T02:45:55.577Z,46.80
2022-11-13T02:46:55.627Z,81.90
2022-11-13T02:47:55.542Z,85.90
2022-11-13T02:49:27.434Z,105.30
2022-11-13T02:49:55.533Z,123.90
2022-11-13T02:50:55.543Z,94.80
2022-11-13T02:51:55.506Z,51.60
2022-11-13T02:52:55.549Z,98.20
2022-11-13T02:53:55.482Z,223.40
2022-11-13T02:54:55.487Z,82.10
2022-11-13T02:55:55.470Z,151.90
2022-11-13T02:56:55.482Z,191.80
2022-11-13T02:57:55.533Z,220.30
2022-11-13T02:58:55.451Z,92.80
2022-11-13T02:59:55.493Z,125.60
2022-11-13T03:00:55.409Z,198.00
2022-11-13T03:01:55.499Z,183.30
2022-11-13T03:02:55.388Z,165.40
2022-11-13T03:03:57.714Z,48.90
2022-11-13T03:05:13.332Z,86.70
2022-11-13T03:05:57.415Z,196.40
2022-11-13T03:06:55.488Z,175.80
2022-11-13T03:07:55.384Z,268.40
2022-11-13T03:08:55.333Z,189.90
2022-11-13T03:09:55.334Z,264.30
2022-11-13T03:10:55.311Z,162.10
2022-11-13T03:11:55.304Z,222.80
2022-11-13T03:12:55.329Z,48.90
2022-11-13T03:13:55.357Z,80.00
2022-11-13T03:14:55.306Z,136.80
2022-11-13T03:15:55.301Z,107.10
2022-11-13T03:16:55.297Z,107.30
2022-11-13T03:17:55.258Z,61.30
2022-11-13T03:18:55.261Z,131.10
2022-11-13T03:19:55.260Z,150.70
2022-11-13T03:20:55.219Z,203.30
2022-11-13T03:21:55.204Z,193.60
2022-11-13T03:22:55.189Z,196.50
2022-11-13T03:23:55.211Z,89.70
2022-11-13T03:24:55.201Z,153.30
2022-11-13T03:25:55.163Z,112.80
2022-11-13T03:26:55.173Z,163.60
2022-11-13T03:27:55.133Z,105.90
2022-11-13T03:28:55.165Z,158.30
2022-11-13T03:29:55.246Z,80.70
2022-11-13T03:30:55.121Z,278.90
2022-11-13T03:31:55.098Z,216.40
2022-11-13T03:32:55.092Z,88.60
2022-11-13T03:33:55.091Z,210.60
2022-11-13T03:34:55.077Z,115.00
2022-11-13T03:35:55.084Z,236.00
2022-11-13T03:36:55.108Z,150.70
2022-11-13T03:37:55.162Z,66.30
2022-11-13T03:38:55.039Z,65.10
2022-11-13T03:39:55.134Z,45.10
2022-11-13T03:40:55.019Z,76.90
2022-11-13T03:41:55.020Z,110.90
2022-11-13T03:42:55.030Z,125.30
2022-11-13T03:43:54.993Z,166.70
2022-11-13T03:44:54.992Z,123.40
2022-11-13T03:45:55.098Z,82.80
2022-11-13T03:46:54.961Z,263.10
2022-11-13T03:47:54.942Z,128.30
2022-11-13T03:48:54.941Z,85.80
2022-11-13T03:49:54.952Z,87.90
2022-11-13T03:50:54.915Z,113.60
2022-11-13T03:51:54.919Z,178.90
2022-11-13T03:52:54.893Z,87.80
2022-11-13T03:53:54.893Z,83.40
2022-11-13T03:54:54.877Z,32.50
2022-11-13T03:55:54.882Z,44.70
2022-11-13T03:56:54.891Z,48.00
2022-11-13T03:57:54.845Z,51.70
2022-11-13T03:58:54.851Z,107.70
2022-11-13T03:59:54.828Z,108.30
2022-11-13T04:00:54.840Z,68.00
2022-11-13T04:01:54.992Z,61.20
2022-11-13T04:02:54.793Z,56.80
2022-11-13T04:03:54.856Z,103.50
2022-11-13T04:04:54.793Z,98.30
2022-11-13T04:05:54.767Z,56.60
2022-11-13T04:06:54.824Z,97.90
2022-11-13T04:07:54.776Z,113.50
2022-11-13T04:08:54.766Z,175.30
2022-11-13T04:09:54.769Z,67.70
2022-11-13T04:10:54.726Z,107.80
2022-11-13T04:11:54.734Z,117.70
2022-11-13T04:12:54.705Z,83.80
2022-11-13T04:13:54.723Z,153.80
2022-11-13T04:14:54.682Z,324.50
2022-11-13T04:15:54.703Z,86.30
2022-11-13T04:16:54.673Z,151.70
2022-11-13T04:17:54.735Z,187.30
2022-11-13T04:18:54.647Z,84.60
2022-11-13T04:19:54.630Z,130.20
2022-11-13T04:20:54.669Z,64.20
2022-11-13T04:21:54.668Z,102.70
2022-11-13T04:22:54.625Z,146.70
2022-11-13T04:23:54.660Z,106.40
2022-11-13T04:24:54.610Z,71.20
2022-11-13T04:25:54.601Z,101.80
2022-11-13T04:26:54.628Z,93.50
2022-11-13T04:27:54.559Z,110.80
2022-11-13T04:28:54.565Z,106.30
2022-11-13T04:29:54.595Z,130.10
2022-11-13T04:30:54.512Z,275.80
2022-11-13T04:31:54.564Z,224.20
2022-11-13T04:32:54.515Z,140.60
2022-11-13T04:33:54.578Z,154.70
2022-11-13T04:34:54.498Z,88.90
2022-11-13T04:35:54.507Z,74.00
2022-11-13T04:36:54.494Z,178.20
2022-11-13T04:37:54.592Z,156.40
2022-11-13T04:38:54.463Z,89.80
2022-11-13T04:39:54.440Z,47.80
2022-11-13T04:40:54.490Z,112.30
2022-11-13T04:41:55.666Z,62.00
2022-11-13T04:42:55.415Z,186.90
2022-11-13T04:43:54.466Z,225.70
2022-11-13T04:44:54.430Z,274.30
2022-11-13T04:45:54.397Z,137.60
2022-11-13T04:46:54.387Z,196.70
2022-11-13T04:47:54.394Z,138.20
2022-11-13T04:48:54.381Z,129.80
2022-11-13T04:49:54.423Z,144.70
2022-11-13T04:50:54.334Z,87.30
2022-11-13T04:51:54.333Z,199.20
2022-11-13T04:52:54.339Z,172.10
2022-11-13T04:53:54.350Z,121.70
2022-11-13T04:54:54.320Z,366.00
2022-11-13T04:55:54.293Z,375.00
2022-11-13T04:56:54.286Z,150.00
2022-11-13T04:57:54.276Z,110.70
2022-11-13T04:58:54.277Z,119.70
2022-11-13T04:59:54.247Z,123.40
2022-11-13T05:00:54.239Z,205.70
2022-11-13T05:01:54.273Z,162.80
2022-11-13T05:02:54.225Z,121.80
2022-11-13T05:03:54.263Z,128.40
2022-11-13T05:04:54.198Z,198.90
2022-11-13T05:05:54.255Z,227.70
2022-11-13T05:06:54.222Z,332.20
2022-11-13T05:07:54.200Z,408.70
2022-11-13T05:08:54.239Z,378.80
2022-11-13T05:09:54.148Z,283.70
2022-11-13T05:10:55.138Z,357.80
2022-11-13T05:11:54.129Z,173.70
2022-11-13T05:12:54.111Z,183.30
2022-11-13T05:13:54.103Z,368.10
2022-11-13T05:14:54.121Z,210.30
2022-11-13T05:15:54.082Z,174.30
2022-11-13T05:16:54.116Z,231.40
2022-11-13T05:17:54.073Z,162.20
2022-11-13T05:18:54.108Z,151.10
2022-11-13T05:19:54.065Z,97.30
2022-11-13T05:20:54.121Z,207.00
2022-11-13T05:21:54.132Z,176.10
2022-11-13T05:22:54.022Z,213.50
2022-11-13T05:23:54.009Z,210.20
2022-11-13T05:24:54.052Z,129.60
2022-11-13T05:25:54.000Z,163.90
2022-11-13T05:26:54.013Z,140.10
2022-11-13T05:27:53.978Z,187.00
2022-11-13T05:28:53.994Z,120.80
2022-11-13T05:29:53.962Z,231.00
2022-11-13T05:30:53.994Z,269.80
2022-11-13T05:31:53.965Z,83.60
2022-11-13T05:32:53.962Z,217.30
2022-11-13T05:33:54.008Z,115.60
2022-11-13T05:34:53.914Z,128.50
2022-11-13T05:35:53.928Z,168.70
2022-11-13T05:36:53.885Z,176.80
2022-11-13T05:37:53.970Z,68.50
2022-11-13T05:38:53.872Z,84.50
2022-11-13T05:39:53.868Z,177.90
2022-11-13T05:40:53.849Z,165.20
2022-11-13T05:41:53.872Z,180.60
2022-11-13T05:42:53.843Z,145.60
2022-11-13T05:43:59.032Z,90.70
2022-11-13T05:44:55.844Z,141.90
2022-11-13T05:45:53.810Z,109.50
2022-11-13T05:46:53.780Z,160.80
2022-11-13T05:47:53.772Z,242.70
2022-11-13T05:48:53.834Z,127.10
2022-11-13T05:49:53.764Z,220.90
2022-11-13T05:50:53.756Z,120.30
2022-11-13T05:51:53.748Z,99.90
2022-11-13T05:52:53.732Z,61.10
2022-11-13T05:53:53.802Z,110.20
2022-11-13T05:54:53.759Z,124.50
2022-11-13T05:55:53.720Z,65.90
2022-11-13T05:56:53.693Z,61.30
2022-11-13T05:57:53.683Z,50.80
2022-11-13T05:58:53.686Z,66.60
2022-11-13T05:59:53.671Z,60.40
2022-11-13T06:00:53.668Z,95.10
2022-11-13T06:01:53.706Z,72.20
2022-11-13T06:02:53.656Z,94.90
2022-11-13T06:03:53.624Z,122.10
2022-11-13T06:04:56.544Z,239.10
2022-11-13T06:05:54.617Z,190.00
2022-11-13T06:06:53.632Z,84.20
2022-11-13T06:07:53.599Z,144.10
2022-11-13T06:08:53.604Z,143.10
2022-11-13T06:09:53.737Z,175.20
2022-11-13T06:10:53.562Z,236.40
2022-11-13T06:11:53.576Z,99.00
2022-11-13T06:12:53.617Z,328.70
2022-11-13T06:13:53.573Z,209.20
2022-11-13T06:14:53.523Z,131.10
2022-11-13T06:15:53.555Z,97.70
2022-11-13T06:16:53.581Z,88.80
2022-11-13T06:17:53.496Z,106.00
2022-11-13T06:18:53.495Z,154.50
2022-11-13T06:19:53.476Z,130.20
2022-11-13T06:20:53.460Z,200.40
2022-11-13T06:21:53.463Z,102.50
2022-11-13T06:22:53.447Z,125.40
2022-11-13T06:23:53.433Z,101.20
2022-11-13T06:24:53.480Z,76.50
2022-11-13T06:25:53.495Z,208.30
2022-11-13T06:26:53.449Z,139.10
2022-11-13T06:27:53.391Z,175.30
2022-11-13T06:28:53.394Z,191.10
2022-11-13T06:29:53.374Z,140.80
2022-11-13T06:30:53.361Z,150.60
2022-11-13T06:31:53.372Z,294.20
2022-11-13T06:32:53.343Z,243.30
2022-11-13T06:33:53.338Z,204.10
2022-11-13T06:34:53.315Z,138.00
2022-11-13T06:35:54.321Z,190.60
2022-11-13T06:36:53.325Z,200.30
2022-11-13T06:37:53.295Z,171.90
2022-11-13T06:38:53.335Z,173.40
2022-11-13T06:39:53.351Z,66.80
2022-11-13T06:40:53.343Z,97.70
2022-11-13T06:41:53.329Z,132.40
2022-11-13T06:42:53.249Z,190.10
2022-11-13T06:43:53.230Z,101.70
2022-11-13T06:44:53.231Z,116.40
2022-11-13T06:45:53.223Z,103.90
2022-11-13T06:46:53.208Z,140.20
2022-11-13T06:47:53.195Z,180.70
2022-11-13T06:48:53.190Z,147.10
2022-11-13T06:49:53.186Z,263.10
2022-11-13T06:50:53.176Z,261.30
2022-11-13T06:51:53.142Z,169.10
2022-11-13T06:52:53.145Z,99.20
2022-11-13T06:53:53.180Z,83.30
2022-11-13T06:54:53.144Z,152.60
2022-11-13T06:55:53.194Z,90.80
2022-11-13T06:56:53.115Z,138.70
2022-11-13T06:57:53.172Z,198.30
2022-11-13T06:58:53.111Z,344.90
2022-11-13T06:59:53.069Z,242.70
2022-11-13T07:00:53.146Z,195.70
2022-11-13T07:01:53.058Z,326.70
2022-11-13T07:02:53.078Z,118.10
2022-11-13T07:03:53.051Z,153.90
2022-11-13T07:04:53.178Z,165.10
2022-11-13T07:05:53.024Z,95.60
2022-11-13T07:06:53.064Z,99.90
2022-11-13T07:07:53.112Z,81.40
2022-11-13T07:08:53.005Z,101.60
2022-11-13T07:09:52.992Z,93.60
2022-11-13T07:10:52.964Z,66.60
2022-11-13T07:11:52.967Z,103.70
2022-11-13T07:12:54.811Z,162.20
2022-11-13T07:13:54.026Z,85.10
2022-11-13T07:14:52.947Z,130.60
2022-11-13T07:15:52.936Z,184.90
2022-11-13T07:17:10.041Z,160.90
2022-11-13T07:17:53.896Z,244.70
2022-11-13T07:18:52.893Z,106.50
2022-11-13T07:19:52.908Z,146.50
2022-11-13T07:20:52.930Z,108.60
2022-11-13T07:21:52.877Z,43.80
2022-11-13T07:22:52.869Z,65.10
2022-11-13T07:23:52.863Z,128.80
2022-11-13T07:24:52.856Z,51.90
2022-11-13T07:25:52.830Z,27.30
2022-11-13T07:26:52.811Z,58.10
2022-11-13T07:27:52.847Z,185.80
2022-11-13T07:28:52.791Z,135.60
2022-11-13T07:29:52.878Z,92.00
2022-11-13T07:30:52.773Z,161.70
2022-11-13T07:31:52.750Z,72.70
2022-11-13T07:32:52.804Z,76.30
2022-11-13T07:33:52.730Z,48.50
2022-11-13T07:34:52.740Z,56.50
2022-11-13T07:35:52.717Z,70.50
2022-11-13T07:36:52.731Z,202.40
2022-11-13T07:37:52.688Z,138.20
2022-11-13T07:38:56.679Z,176.00
2022-11-13T07:39:53.684Z,118.60
2022-11-13T07:40:52.677Z,37.90
2022-11-13T07:41:52.712Z,79.10
2022-11-13T07:42:52.653Z,127.40
2022-11-13T07:43:52.678Z,40.60
2022-11-13T07:44:54.901Z,37.00
2022-11-13T07:45:53.696Z,93.50
2022-11-13T07:46:52.614Z,163.80
2022-11-13T07:47:52.632Z,301.30
2022-11-13T07:48:52.607Z,186.80
2022-11-13T07:49:55.372Z,210.50
2022-11-13T07:50:53.589Z,281.90
2022-11-13T07:51:52.573Z,231.10
2022-11-13T07:52:52.560Z,208.70
2022-11-13T07:53:52.578Z,153.50
2022-11-13T07:54:52.549Z,277.20
2022-11-13T07:55:52.525Z,178.70
2022-11-13T07:56:52.525Z,136.30
2022-11-13T07:57:52.508Z,89.10
2022-11-13T07:58:52.519Z,213.10
2022-11-13T07:59:52.494Z,204.90
2022-11-13T08:00:53.512Z,238.50
2022-11-13T08:01:52.534Z,194.70
2022-11-13T08:02:52.490Z,358.90
2022-11-13T08:03:52.510Z,367.80
2022-11-13T08:04:52.447Z,262.20
2022-11-13T08:05:52.424Z,183.00
2022-11-13T08:06:52.446Z,139.90
2022-11-13T08:07:52.439Z,79.60
2022-11-13T08:08:52.392Z,74.10
2022-11-13T08:09:52.516Z,56.70
2022-11-13T08:10:52.384Z,274.20
2022-11-13T08:11:52.377Z,198.90
2022-11-13T08:12:52.359Z,289.40
2022-11-13T08:13:52.346Z,282.50
2022-11-13T08:14:52.351Z,127.90
2022-11-13T08:15:52.349Z,240.50
2022-11-13T08:16:52.355Z,95.70
2022-11-13T08:17:52.385Z,101.20
2022-11-13T08:18:53.309Z,106.70
2022-11-13T08:19:52.327Z,119.30
2022-11-13T08:20:52.280Z,58.60
2022-11-13T08:21:52.281Z,76.60
2022-11-13T08:23:03.495Z,150.80
2022-11-13T08:23:53.290Z,53.30
2022-11-13T08:24:52.357Z,55.50
2022-11-13T08:25:52.252Z,81.20
2022-11-13T08:26:52.229Z,196.10
2022-11-13T08:27:52.215Z,46.60
2022-11-13T08:28:52.228Z,88.80
2022-11-13T08:29:52.215Z,233.60
2022-11-13T08:30:52.331Z,225.50
2022-11-13T08:31:52.166Z,158.00
2022-11-13T08:32:52.190Z,37.90
2022-11-13T08:33:52.266Z,98.70
2022-11-13T08:34:52.187Z,33.00
2022-11-13T08:35:52.145Z,221.70
2022-11-13T08:36:52.123Z,206.70
2022-11-13T08:37:52.119Z,62.90
2022-11-13T08:38:52.127Z,195.90
2022-11-13T08:39:52.111Z,45.30
2022-11-13T08:40:52.087Z,60.80
2022-11-13T08:41:52.067Z,65.00
2022-11-13T08:42:52.073Z,65.40
2022-11-13T08:43:52.056Z,14.30
2022-11-13T08:44:52.067Z,69.90
2022-11-13T08:45:52.035Z,100.80
2022-11-13T08:46:52.019Z,74.70
2022-11-13T08:47:52.015Z,18.20
2022-11-13T08:48:52.009Z,67.90
2022-11-13T08:50:23.989Z,76.40
2022-11-13T08:50:51.974Z,106.20
2022-11-13T08:51:51.969Z,132.30
2022-11-13T08:52:51.988Z,176.90
2022-11-13T08:53:51.958Z,129.90
2022-11-13T08:54:51.951Z,49.60
2022-11-13T08:55:51.950Z,64.00
2022-11-13T08:56:56.588Z,70.80
2022-11-13T08:57:53.911Z,65.40
2022-11-13T08:58:51.913Z,13.60
2022-11-13T08:59:51.892Z,44.50
2022-11-13T09:00:51.955Z,18.80
2022-11-13T09:01:51.905Z,28.80
2022-11-13T09:02:51.861Z,22.00
2022-11-13T09:03:51.896Z,8.00
2022-11-13T09:04:51.838Z,7.00
2022-11-13T09:05:51.910Z,7.10
2022-11-13T09:06:51.870Z,6.80
2022-11-13T09:07:51.812Z,20.00
2022-11-13T09:08:51.798Z,36.50
2022-11-13T09:09:51.773Z,31.80
2022-11-13T09:10:51.780Z,31.90
2022-11-13T09:11:51.790Z,15.90
2022-11-13T09:12:51.762Z,27.90
2022-11-13T09:13:53.522Z,65.20
2022-11-13T09:14:51.733Z,17.60
2022-11-13T09:15:51.756Z,19.30
2022-11-13T09:16:51.717Z,11.50
2022-11-13T09:17:51.701Z,8.20
2022-11-13T09:18:51.705Z,5.50
2022-11-13T09:19:51.683Z,7.50
2022-11-13T09:20:51.679Z,40.70
2022-11-13T09:21:51.755Z,35.30
2022-11-13T09:22:51.656Z,16.60
2022-11-13T09:23:51.691Z,21.70
2022-11-13T09:24:51.627Z,20.30
2022-11-13T09:25:51.624Z,17.30
2022-11-13T09:26:51.611Z,25.40
2022-11-13T09:27:51.628Z,21.10
2022-11-13T09:28:51.616Z,13.40
2022-11-13T09:29:55.559Z,6.90
2022-11-13T09:30:52.581Z,17.10
2022-11-13T09:31:51.566Z,7.30
2022-11-13T09:32:51.563Z,7.50
2022-11-13T09:33:51.596Z,7.90
2022-11-13T09:34:51.542Z,7.20
2022-11-13T09:35:51.545Z,8.70
2022-11-13T09:36:51.512Z,7.40
2022-11-13T09:37:51.582Z,6.70
2022-11-13T09:38:51.498Z,6.90
2022-11-13T09:39:51.511Z,6.80
2022-11-13T09:40:51.513Z,7.30
2022-11-13T09:41:52.490Z,6.80
2022-11-13T09:42:51.521Z,7.50
2022-11-13T09:43:55.219Z,7.30
2022-11-13T09:44:52.516Z,8.90
2022-11-13T09:45:51.440Z,9.40
2022-11-13T09:46:51.429Z,7.50
2022-11-13T09:47:51.422Z,8.60
2022-11-13T09:48:51.393Z,8.70
2022-11-13T09:49:51.418Z,10.90
2022-11-13T09:50:51.400Z,14.40
2022-11-13T09:51:51.371Z,12.10
2022-11-13T09:52:51.358Z,9.80
2022-11-13T09:53:51.451Z,8.80
2022-11-13T09:54:51.448Z,9.00
2022-11-13T09:55:51.324Z,7.70
2022-11-13T09:56:51.319Z,8.00
2022-11-13T09:57:51.313Z,8.40
2022-11-13T09:58:51.292Z,7.80
2022-11-13T09:59:51.296Z,7.80
2022-11-13T10:00:51.307Z,7.20
2022-11-13T10:01:51.278Z,7.10
2022-11-13T10:02:51.255Z,6.80
2022-11-13T10:04:01.629Z,7.10
2022-11-13T10:04:53.239Z,7.20
2022-11-13T10:05:51.235Z,6.90
2022-11-13T10:06:51.291Z,7.00
2022-11-13T10:07:51.218Z,7.80
2022-11-13T10:08:51.225Z,7.70
2022-11-13T10:09:51.266Z,7.80
2022-11-13T10:10:55.442Z,7.30
2022-11-13T10:11:52.159Z,7.20
2022-11-13T10:12:51.170Z,6.90
2022-11-13T10:13:51.143Z,7.20
2022-11-13T10:14:51.130Z,7.50
2022-11-13T10:15:51.117Z,7.40
2022-11-13T10:16:51.173Z,7.50
2022-11-13T10:17:51.117Z,7.50
2022-11-13T10:18:51.082Z,8.10
2022-11-13T10:19:51.075Z,6.90
2022-11-13T10:20:51.091Z,6.80
2022-11-13T10:21:54.997Z,7.20
2022-11-13T10:22:53.047Z,7.50
2022-11-13T10:23:51.044Z,7.50
2022-11-13T10:24:51.047Z,7.70
2022-11-13T10:25:51.139Z,7.90
2022-11-13T10:26:51.004Z,7.70
2022-11-13T10:27:51.080Z,7.40
2022-11-13T10:28:51.733Z,8.40
2022-11-13T10:29:51.980Z,7.80
2022-11-13T10:30:51.033Z,7.80
2022-11-13T10:31:50.995Z,7.70
2022-11-13T10:32:50.952Z,7.90
2022-11-13T10:33:50.953Z,7.60
2022-11-13T10:34:50.936Z,8.80
2022-11-13T10:35:50.925Z,8.60
2022-11-13T10:36:50.943Z,8.00
2022-11-13T10:37:50.894Z,8.10
2022-11-13T10:38:50.942Z,9.30
2022-11-13T10:39:50.917Z,8.20
2022-11-13T10:40:50.871Z,9.00
2022-11-13T10:41:50.932Z,8.40
2022-11-13T10:42:50.858Z,7.60
2022-11-13T10:43:50.920Z,7.30
2022-11-13T10:44:50.830Z,8.40
2022-11-13T10:45:50.814Z,7.70
2022-11-13T10:46:50.889Z,8.00
2022-11-13T10:48:03.688Z,7.90
2022-11-13T10:48:52.822Z,8.50
2022-11-13T10:49:50.777Z,8.30
2022-11-13T10:50:50.783Z,7.70
2022-11-13T10:51:50.781Z,8.40
2022-11-13T10:52:50.743Z,7.80
2022-11-13T10:53:50.739Z,8.90
2022-11-13T10:54:50.727Z,8.50
2022-11-13T10:55:50.759Z,9.00
2022-11-13T10:56:50.751Z,9.20
2022-11-13T10:57:56.144Z,8.80
2022-11-13T10:58:52.699Z,8.40
2022-11-13T10:59:50.690Z,8.40
2022-11-13T11:00:50.708Z,8.80
2022-11-13T11:01:50.689Z,8.20
2022-11-13T11:02:50.738Z,8.70
2022-11-13T11:03:50.633Z,8.10
2022-11-13T11:04:50.636Z,8.20
2022-11-13T11:05:50.642Z,7.70
2022-11-13T11:07:19.053Z,8.80
2022-11-13T11:07:52.667Z,8.30
2022-11-13T11:08:50.589Z,9.30
2022-11-13T11:09:50.595Z,8.50
2022-11-13T11:10:50.604Z,8.20
2022-11-13T11:11:50.562Z,9.20
2022-11-13T11:12:50.646Z,8.10
2022-11-13T11:13:50.609Z,8.00
2022-11-13T11:14:50.547Z,8.60
2022-11-13T11:15:50.553Z,8.50
2022-11-13T11:16:50.594Z,7.80
2022-11-13T11:17:50.500Z,8.80
2022-11-13T11:18:50.519Z,8.90
2022-11-13T11:19:50.523Z,8.90
2022-11-13T11:20:50.482Z,8.50
2022-11-13T11:21:50.487Z,8.50
2022-11-13T11:22:50.447Z,8.30
2022-11-13T11:23:54.745Z,8.80
2022-11-13T11:24:51.472Z,8.30
2022-11-13T11:25:50.424Z,8.20
2022-11-13T11:26:50.418Z,8.80
2022-11-13T11:27:50.393Z,8.30
2022-11-13T11:28:50.405Z,8.60
2022-11-13T11:29:50.489Z,8.50
2022-11-13T11:30:50.391Z,8.70
2022-11-13T11:31:50.364Z,8.30
2022-11-13T11:32:50.359Z,9.20
2022-11-13T11:33:50.355Z,8.50
2022-11-13T11:34:53.739Z,9.00
2022-11-13T11:35:51.335Z,8.50
2022-11-13T11:36:50.316Z,9.00
2022-11-13T11:37:50.316Z,8.60
2022-11-13T11:38:50.334Z,7.70
2022-11-13T11:39:50.324Z,8.80
2022-11-13T11:40:50.269Z,8.40
2022-11-13T11:41:50.264Z,8.90
2022-11-13T11:42:50.278Z,9.10
2022-11-13T11:43:50.271Z,8.50
2022-11-13T11:44:50.264Z,9.00
2022-11-13T11:45:50.305Z,9.00
2022-11-13T11:46:50.222Z,9.00
2022-11-13T11:47:50.250Z,8.80
2022-11-13T11:48:50.248Z,9.40
2022-11-13T11:49:50.188Z,9.30
2022-11-13T11:50:50.168Z,9.70
2022-11-13T11:51:51.182Z,9.10
2022-11-13T11:52:50.200Z,8.40
2022-11-13T11:53:50.145Z,9.20
2022-11-13T11:54:50.126Z,7.80
2022-11-13T11:55:50.134Z,9.20
2022-11-13T11:56:50.130Z,8.30
2022-11-13T11:57:50.115Z,8.60
2022-11-13T11:58:50.112Z,7.20
2022-11-13T11:59:50.079Z,7.50
2022-11-13T12:00:50.096Z,7.60
2022-11-13T12:01:50.170Z,7.50
2022-11-13T12:02:50.096Z,7.70
2022-11-13T12:03:50.067Z,7.80
2022-11-13T12:04:50.070Z,7.40
2022-11-13T12:05:50.031Z,6.70
2022-11-13T12:06:50.142Z,7.60
2022-11-13T12:07:50.005Z,7.20
2022-11-13T12:08:49.998Z,7.60
2022-11-13T12:09:49.972Z,6.20
2022-11-13T12:10:50.015Z,8.10
2022-11-13T12:11:50.036Z,6.10
2022-11-13T12:12:50.037Z,6.50
2022-11-13T12:13:49.945Z,6.70
2022-11-13T12:14:49.930Z,6.40
2022-11-13T12:15:49.922Z,6.20
2022-11-13T12:16:49.894Z,6.30
2022-11-13T12:17:49.980Z,6.50
2022-11-13T12:18:49.878Z,6.20
2022-11-13T12:19:49.883Z,5.60
2022-11-13T12:20:49.861Z,5.80
2022-11-13T12:21:50.845Z,5.60
2022-11-13T12:22:49.850Z,5.80
2022-11-13T12:23:49.855Z,5.60
2022-11-13T12:24:49.818Z,5.30
2022-11-13T12:25:49.817Z,5.00
2022-11-13T12:26:49.818Z,5.00
2022-11-13T12:27:49.811Z,5.30
2022-11-13T12:28:49.805Z,4.70
2022-11-13T12:29:49.773Z,5.10
2022-11-13T12:30:49.766Z,4.50
2022-11-13T12:31:49.751Z,4.70
2022-11-13T12:32:49.759Z,4.90
2022-11-13T12:33:49.821Z,4.40
2022-11-13T12:34:49.777Z,4.40
2022-11-13T12:35:49.764Z,4.60
2022-11-13T12:36:49.726Z,4.50
2022-11-13T12:37:49.690Z,3.80
2022-11-13T12:38:49.717Z,3.60
2022-11-13T12:39:49.735Z,3.70
2022-11-13T12:40:49.649Z,3.70
2022-11-13T12:41:49.649Z,3.80
2022-11-13T12:42:49.657Z,2.90
2022-11-13T12:43:49.614Z,3.30
2022-11-13T12:44:50.621Z,3.50
2022-11-13T12:45:49.625Z,3.70
2022-11-13T12:46:49.594Z,4.40
2022-11-13T12:47:49.742Z,3.20
2022-11-13T12:48:49.572Z,3.00
2022-11-13T12:49:49.690Z,3.30
2022-11-13T12:50:50.571Z,2.60